sensor_id;sensor_type;location;lat;lon;timestamp;P1;durP1;ratioP1;P2;durP2;ratioP2
43519;SDS011;46848;51.980;5.918;2024-03-06T00:01:35;24.17;;;15.80;;
43519;SDS011;46848;51.980;5.918;2024-03-06T00:04:02;24.93;;;17.23;;
43519;SDS011;46848;51.980;5.918;2024-03-06T00:06:29;22.83;;;16.10;;
43519;SDS011;46848;51.980;5.918;2024-03-06T00:08:55;25.63;;;17.50;;
43519;SDS011;46848;51.980;5.918;2024-03-06T00:11:21;25.30;;;18.00;;
43519;SDS011;46848;51.980;5.918;2024-03-06T00:13:46;23.07;;;16.80;;
43519;SDS011;46848;51.980;5.918;2024-03-06T00:16:13;21.60;;;14.90;;
43519;SDS011;46848;51.980;5.918;2024-03-06T00:18:38;23.63;;;16.63;;
43519;SDS011;46848;51.980;5.918;2024-03-06T00:21:05;24.27;;;17.23;;
43519;SDS011;46848;51.980;5.918;2024-03-06T00:23:31;24.73;;;16.93;;
43519;SDS011;46848;51.980;5.918;2024-03-06T00:25:57;23.97;;;17.23;;
43519;SDS011;46848;51.980;5.918;2024-03-06T00:28:23;22.83;;;16.43;;
43519;SDS011;46848;51.980;5.918;2024-03-06T00:30:49;23.20;;;14.63;;
43519;SDS011;46848;51.980;5.918;2024-03-06T00:33:14;20.90;;;14.60;;
43519;SDS011;46848;51.980;5.918;2024-03-06T00:35:40;21.60;;;14.80;;
43519;SDS011;46848;51.980;5.918;2024-03-06T00:38:06;20.63;;;14.30;;
43519;SDS011;46848;51.980;5.918;2024-03-06T00:40:32;21.47;;;14.87;;
43519;SDS011;46848;51.980;5.918;2024-03-06T00:42:58;23.00;;;15.77;;
43519;SDS011;46848;51.980;5.918;2024-03-06T00:45:24;21.37;;;15.37;;
43519;SDS011;46848;51.980;5.918;2024-03-06T00:47:49;22.60;;;16.03;;
43519;SDS011;46848;51.980;5.918;2024-03-06T00:50:15;22.77;;;16.30;;
43519;SDS011;46848;51.980;5.918;2024-03-06T00:52:42;25.87;;;16.23;;
43519;SDS011;46848;51.980;5.918;2024-03-06T00:55:08;25.73;;;17.77;;
43519;SDS011;46848;51.980;5.918;2024-03-06T00:57:34;26.03;;;18.07;;
43519;SDS011;46848;51.980;5.918;2024-03-06T01:00:01;25.70;;;17.47;;
43519;SDS011;46848;51.980;5.918;2024-03-06T01:02:35;26.57;;;18.10;;
43519;SDS011;46848;51.980;5.918;2024-03-06T01:05:04;26.00;;;17.90;;
43519;SDS011;46848;51.980;5.918;2024-03-06T01:07:30;26.97;;;18.03;;
43519;SDS011;46848;51.980;5.918;2024-03-06T01:09:56;26.43;;;17.80;;
43519;SDS011;46848;51.980;5.918;2024-03-06T01:12:25;23.83;;;17.17;;
43519;SDS011;46848;51.980;5.918;2024-03-06T01:14:51;22.70;;;16.40;;
43519;SDS011;46848;51.980;5.918;2024-03-06T01:17:16;21.17;;;15.87;;
43519;SDS011;46848;51.980;5.918;2024-03-06T01:19:42;22.83;;;16.30;;
43519;SDS011;46848;51.980;5.918;2024-03-06T01:22:11;22.10;;;15.50;;
43519;SDS011;46848;51.980;5.918;2024-03-06T01:24:39;21.47;;;15.37;;
43519;SDS011;46848;51.980;5.918;2024-03-06T01:27:05;21.43;;;15.40;;
43519;SDS011;46848;51.980;5.918;2024-03-06T01:29:30;20.30;;;14.70;;
43519;SDS011;46848;51.980;5.918;2024-03-06T01:31:57;20.83;;;15.97;;
43519;SDS011;46848;51.980;5.918;2024-03-06T01:34:23;23.20;;;14.87;;
43519;SDS011;46848;51.980;5.918;2024-03-06T01:36:48;23.73;;;16.63;;
43519;SDS011;46848;51.980;5.918;2024-03-06T01:39:14;24.07;;;16.03;;
43519;SDS011;46848;51.980;5.918;2024-03-06T01:41:49;21.27;;;16.03;;
43519;SDS011;46848;51.980;5.918;2024-03-06T01:44:16;22.63;;;16.30;;
43519;SDS011;46848;51.980;5.918;2024-03-06T01:46:46;22.47;;;16.00;;
43519;SDS011;46848;51.980;5.918;2024-03-06T01:49:14;21.08;;;15.23;;
43519;SDS011;46848;51.980;5.918;2024-03-06T01:51:41;22.03;;;15.83;;
43519;SDS011;46848;51.980;5.918;2024-03-06T01:54:10;25.43;;;16.93;;
43519;SDS011;46848;51.980;5.918;2024-03-06T01:56:36;22.43;;;15.80;;
43519;SDS011;46848;51.980;5.918;2024-03-06T01:59:08;24.38;;;16.27;;
43519;SDS011;46848;51.980;5.918;2024-03-06T02:01:34;24.40;;;16.53;;
43519;SDS011;46848;51.980;5.918;2024-03-06T02:04:00;24.07;;;16.70;;
43519;SDS011;46848;51.980;5.918;2024-03-06T02:06:26;21.70;;;15.33;;
43519;SDS011;46848;51.980;5.918;2024-03-06T02:08:52;22.80;;;15.77;;
43519;SDS011;46848;51.980;5.918;2024-03-06T02:11:17;24.93;;;16.33;;
43519;SDS011;46848;51.980;5.918;2024-03-06T02:13:43;21.13;;;15.60;;
43519;SDS011;46848;51.980;5.918;2024-03-06T02:16:09;22.13;;;16.30;;
43519;SDS011;46848;51.980;5.918;2024-03-06T02:18:35;22.10;;;16.00;;
43519;SDS011;46848;51.980;5.918;2024-03-06T02:21:01;24.77;;;18.03;;
43519;SDS011;46848;51.980;5.918;2024-03-06T02:23:27;22.40;;;16.20;;
43519;SDS011;46848;51.980;5.918;2024-03-06T02:25:53;25.17;;;15.97;;
43519;SDS011;46848;51.980;5.918;2024-03-06T02:28:19;22.80;;;16.40;;
43519;SDS011;46848;51.980;5.918;2024-03-06T02:30:44;25.37;;;17.60;;
43519;SDS011;46848;51.980;5.918;2024-03-06T02:33:10;22.60;;;16.73;;
43519;SDS011;46848;51.980;5.918;2024-03-06T02:35:36;24.47;;;16.87;;
43519;SDS011;46848;51.980;5.918;2024-03-06T02:38:02;22.53;;;16.50;;
43519;SDS011;46848;51.980;5.918;2024-03-06T02:40:30;25.13;;;17.17;;
43519;SDS011;46848;51.980;5.918;2024-03-06T02:42:56;25.23;;;17.23;;
43519;SDS011;46848;51.980;5.918;2024-03-06T02:45:21;20.53;;;15.30;;
43519;SDS011;46848;51.980;5.918;2024-03-06T02:47:47;23.27;;;15.93;;
43519;SDS011;46848;51.980;5.918;2024-03-06T02:50:14;22.83;;;16.53;;
43519;SDS011;46848;51.980;5.918;2024-03-06T02:52:40;24.70;;;16.97;;
43519;SDS011;46848;51.980;5.918;2024-03-06T02:55:06;24.57;;;16.40;;
43519;SDS011;46848;51.980;5.918;2024-03-06T02:57:32;22.73;;;16.83;;
43519;SDS011;46848;51.980;5.918;2024-03-06T02:59:58;22.63;;;16.53;;
43519;SDS011;46848;51.980;5.918;2024-03-06T03:02:24;24.60;;;17.27;;
43519;SDS011;46848;51.980;5.918;2024-03-06T03:04:50;22.73;;;16.43;;
43519;SDS011;46848;51.980;5.918;2024-03-06T03:07:19;22.07;;;16.23;;
43519;SDS011;46848;51.980;5.918;2024-03-06T03:09:45;25.87;;;18.17;;
43519;SDS011;46848;51.980;5.918;2024-03-06T03:12:12;21.50;;;16.27;;
43519;SDS011;46848;51.980;5.918;2024-03-06T03:14:39;21.63;;;16.70;;
43519;SDS011;46848;51.980;5.918;2024-03-06T03:17:05;25.13;;;16.23;;
43519;SDS011;46848;51.980;5.918;2024-03-06T03:19:32;20.53;;;14.90;;
43519;SDS011;46848;51.980;5.918;2024-03-06T03:21:57;20.97;;;15.80;;
43519;SDS011;46848;51.980;5.918;2024-03-06T03:24:24;24.90;;;16.50;;
43519;SDS011;46848;51.980;5.918;2024-03-06T03:26:51;26.07;;;16.80;;
43519;SDS011;46848;51.980;5.918;2024-03-06T03:29:17;24.03;;;17.07;;
43519;SDS011;46848;51.980;5.918;2024-03-06T03:31:43;22.77;;;15.93;;
43519;SDS011;46848;51.980;5.918;2024-03-06T03:34:08;26.87;;;18.60;;
43519;SDS011;46848;51.980;5.918;2024-03-06T03:36:34;24.73;;;17.27;;
43519;SDS011;46848;51.980;5.918;2024-03-06T03:39:00;24.73;;;18.07;;
43519;SDS011;46848;51.980;5.918;2024-03-06T03:41:26;26.27;;;17.87;;
43519;SDS011;46848;51.980;5.918;2024-03-06T03:43:51;23.87;;;17.20;;
43519;SDS011;46848;51.980;5.918;2024-03-06T03:46:17;25.13;;;18.50;;
43519;SDS011;46848;51.980;5.918;2024-03-06T03:48:42;27.37;;;18.27;;
43519;SDS011;46848;51.980;5.918;2024-03-06T03:51:08;24.53;;;17.23;;
43519;SDS011;46848;51.980;5.918;2024-03-06T03:53:34;23.10;;;16.63;;
43519;SDS011;46848;51.980;5.918;2024-03-06T03:56:00;22.80;;;16.43;;
43519;SDS011;46848;51.980;5.918;2024-03-06T03:58:26;24.33;;;16.17;;
43519;SDS011;46848;51.980;5.918;2024-03-06T04:00:52;23.87;;;15.97;;
43519;SDS011;46848;51.980;5.918;2024-03-06T04:03:18;24.47;;;16.47;;
43519;SDS011;46848;51.980;5.918;2024-03-06T04:05:46;23.27;;;16.83;;
43519;SDS011;46848;51.980;5.918;2024-03-06T04:08:12;24.23;;;16.87;;
43519;SDS011;46848;51.980;5.918;2024-03-06T04:10:38;22.40;;;15.87;;
43519;SDS011;46848;51.980;5.918;2024-03-06T04:13:03;20.93;;;15.17;;
43519;SDS011;46848;51.980;5.918;2024-03-06T04:15:29;20.50;;;16.27;;
43519;SDS011;46848;51.980;5.918;2024-03-06T04:17:56;22.87;;;16.33;;
43519;SDS011;46848;51.980;5.918;2024-03-06T04:20:21;21.67;;;16.00;;
43519;SDS011;46848;51.980;5.918;2024-03-06T04:22:47;23.47;;;16.27;;
43519;SDS011;46848;51.980;5.918;2024-03-06T04:25:15;22.30;;;16.67;;
43519;SDS011;46848;51.980;5.918;2024-03-06T04:27:40;23.80;;;16.77;;
43519;SDS011;46848;51.980;5.918;2024-03-06T04:30:06;23.97;;;16.00;;
43519;SDS011;46848;51.980;5.918;2024-03-06T04:32:32;25.67;;;17.57;;
43519;SDS011;46848;51.980;5.918;2024-03-06T04:34:58;24.63;;;16.80;;
43519;SDS011;46848;51.980;5.918;2024-03-06T04:37:24;25.67;;;16.90;;
43519;SDS011;46848;51.980;5.918;2024-03-06T04:39:51;24.27;;;17.17;;
43519;SDS011;46848;51.980;5.918;2024-03-06T04:42:17;24.13;;;16.80;;
43519;SDS011;46848;51.980;5.918;2024-03-06T04:44:45;20.60;;;15.73;;
43519;SDS011;46848;51.980;5.918;2024-03-06T04:47:11;26.97;;;17.80;;
43519;SDS011;46848;51.980;5.918;2024-03-06T04:49:36;22.10;;;15.87;;
43519;SDS011;46848;51.980;5.918;2024-03-06T04:52:02;24.73;;;16.57;;
43519;SDS011;46848;51.980;5.918;2024-03-06T04:54:28;22.47;;;16.03;;
43519;SDS011;46848;51.980;5.918;2024-03-06T04:56:54;23.20;;;16.47;;
43519;SDS011;46848;51.980;5.918;2024-03-06T04:59:20;26.97;;;18.70;;
43519;SDS011;46848;51.980;5.918;2024-03-06T05:01:45;23.57;;;17.57;;
43519;SDS011;46848;51.980;5.918;2024-03-06T05:04:11;24.93;;;17.40;;
43519;SDS011;46848;51.980;5.918;2024-03-06T05:06:37;28.30;;;18.73;;
43519;SDS011;46848;51.980;5.918;2024-03-06T05:09:03;27.03;;;18.93;;
43519;SDS011;46848;51.980;5.918;2024-03-06T05:11:29;27.93;;;18.47;;
43519;SDS011;46848;51.980;5.918;2024-03-06T05:13:55;24.27;;;17.60;;
43519;SDS011;46848;51.980;5.918;2024-03-06T05:16:22;26.43;;;18.40;;
43519;SDS011;46848;51.980;5.918;2024-03-06T05:18:49;35.53;;;21.37;;
43519;SDS011;46848;51.980;5.918;2024-03-06T05:21:14;30.77;;;20.03;;
43519;SDS011;46848;51.980;5.918;2024-03-06T05:23:41;35.73;;;19.37;;
43519;SDS011;46848;51.980;5.918;2024-03-06T05:26:06;31.90;;;20.53;;
43519;SDS011;46848;51.980;5.918;2024-03-06T05:28:32;41.37;;;20.10;;
43519;SDS011;46848;51.980;5.918;2024-03-06T05:30:58;45.13;;;19.80;;
43519;SDS011;46848;51.980;5.918;2024-03-06T05:33:25;36.50;;;18.63;;
43519;SDS011;46848;51.980;5.918;2024-03-06T05:35:53;46.13;;;17.77;;
43519;SDS011;46848;51.980;5.918;2024-03-06T05:38:19;39.00;;;17.47;;
43519;SDS011;46848;51.980;5.918;2024-03-06T05:40:44;37.90;;;18.37;;
43519;SDS011;46848;51.980;5.918;2024-03-06T05:43:10;39.93;;;18.93;;
43519;SDS011;46848;51.980;5.918;2024-03-06T05:45:36;27.30;;;17.57;;
43519;SDS011;46848;51.980;5.918;2024-03-06T05:48:01;42.83;;;17.63;;
43519;SDS011;46848;51.980;5.918;2024-03-06T05:50:29;45.40;;;16.23;;
43519;SDS011;46848;51.980;5.918;2024-03-06T05:52:55;39.40;;;15.53;;
43519;SDS011;46848;51.980;5.918;2024-03-06T05:55:22;33.83;;;16.00;;
43519;SDS011;46848;51.980;5.918;2024-03-06T05:57:47;38.50;;;14.93;;
43519;SDS011;46848;51.980;5.918;2024-03-06T06:00:13;27.43;;;14.60;;
43519;SDS011;46848;51.980;5.918;2024-03-06T06:02:39;31.07;;;15.27;;
43519;SDS011;46848;51.980;5.918;2024-03-06T06:05:05;32.20;;;15.33;;
43519;SDS011;46848;51.980;5.918;2024-03-06T06:07:32;31.80;;;13.73;;
43519;SDS011;46848;51.980;5.918;2024-03-06T06:09:57;26.77;;;13.97;;
43519;SDS011;46848;51.980;5.918;2024-03-06T06:12:23;32.57;;;14.97;;
43519;SDS011;46848;51.980;5.918;2024-03-06T06:14:49;25.90;;;15.00;;
43519;SDS011;46848;51.980;5.918;2024-03-06T06:17:14;29.40;;;15.60;;
43519;SDS011;46848;51.980;5.918;2024-03-06T06:19:41;24.83;;;15.03;;
43519;SDS011;46848;51.980;5.918;2024-03-06T06:22:08;21.90;;;15.33;;
43519;SDS011;46848;51.980;5.918;2024-03-06T06:24:37;26.43;;;16.07;;
43519;SDS011;46848;51.980;5.918;2024-03-06T06:27:03;26.40;;;14.47;;
43519;SDS011;46848;51.980;5.918;2024-03-06T06:29:29;28.80;;;15.17;;
43519;SDS011;46848;51.980;5.918;2024-03-06T06:31:55;28.70;;;15.17;;
43519;SDS011;46848;51.980;5.918;2024-03-06T06:34:22;22.90;;;15.03;;
43519;SDS011;46848;51.980;5.918;2024-03-06T06:36:48;24.57;;;15.17;;
43519;SDS011;46848;51.980;5.918;2024-03-06T06:39:13;24.33;;;15.77;;
43519;SDS011;46848;51.980;5.918;2024-03-06T06:41:39;21.87;;;14.13;;
43519;SDS011;46848;51.980;5.918;2024-03-06T06:44:04;20.93;;;13.87;;
43519;SDS011;46848;51.980;5.918;2024-03-06T06:46:30;19.70;;;13.93;;
43519;SDS011;46848;51.980;5.918;2024-03-06T06:48:56;18.17;;;13.60;;
43519;SDS011;46848;51.980;5.918;2024-03-06T06:51:21;20.87;;;13.43;;
43519;SDS011;46848;51.980;5.918;2024-03-06T06:53:48;19.27;;;14.30;;
43519;SDS011;46848;51.980;5.918;2024-03-06T06:56:14;24.37;;;14.20;;
43519;SDS011;46848;51.980;5.918;2024-03-06T06:58:39;19.83;;;13.50;;
43519;SDS011;46848;51.980;5.918;2024-03-06T07:01:07;17.60;;;13.97;;
43519;SDS011;46848;51.980;5.918;2024-03-06T07:03:33;23.57;;;12.97;;
43519;SDS011;46848;51.980;5.918;2024-03-06T07:05:58;20.77;;;14.87;;
43519;SDS011;46848;51.980;5.918;2024-03-06T07:08:24;21.03;;;14.73;;
43519;SDS011;46848;51.980;5.918;2024-03-06T07:10:50;24.97;;;15.97;;
43519;SDS011;46848;51.980;5.918;2024-03-06T07:13:18;26.10;;;14.50;;
43519;SDS011;46848;51.980;5.918;2024-03-06T07:15:44;18.73;;;13.80;;
43519;SDS011;46848;51.980;5.918;2024-03-06T07:18:09;20.37;;;14.90;;
43519;SDS011;46848;51.980;5.918;2024-03-06T07:20:35;25.10;;;14.67;;
43519;SDS011;46848;51.980;5.918;2024-03-06T07:23:01;26.23;;;15.47;;
43519;SDS011;46848;51.980;5.918;2024-03-06T07:25:26;29.30;;;13.97;;
43519;SDS011;46848;51.980;5.918;2024-03-06T07:27:52;30.40;;;16.23;;
43519;SDS011;46848;51.980;5.918;2024-03-06T07:30:17;20.33;;;15.03;;
43519;SDS011;46848;51.980;5.918;2024-03-06T07:32:43;26.07;;;14.27;;
43519;SDS011;46848;51.980;5.918;2024-03-06T07:35:09;18.67;;;13.40;;
43519;SDS011;46848;51.980;5.918;2024-03-06T07:37:35;18.23;;;13.27;;
43519;SDS011;46848;51.980;5.918;2024-03-06T07:40:00;25.73;;;14.10;;
43519;SDS011;46848;51.980;5.918;2024-03-06T07:42:26;22.43;;;13.70;;
43519;SDS011;46848;51.980;5.918;2024-03-06T07:44:52;32.87;;;13.00;;
43519;SDS011;46848;51.980;5.918;2024-03-06T07:47:18;27.23;;;13.70;;
43519;SDS011;46848;51.980;5.918;2024-03-06T07:49:43;18.47;;;13.63;;
43519;SDS011;46848;51.980;5.918;2024-03-06T07:52:09;23.70;;;14.50;;
43519;SDS011;46848;51.980;5.918;2024-03-06T07:54:35;26.30;;;16.00;;
43519;SDS011;46848;51.980;5.918;2024-03-06T07:57:01;20.50;;;14.13;;
43519;SDS011;46848;51.980;5.918;2024-03-06T07:59:27;23.53;;;13.57;;
43519;SDS011;46848;51.980;5.918;2024-03-06T08:01:52;21.10;;;13.13;;
43519;SDS011;46848;51.980;5.918;2024-03-06T08:04:18;27.53;;;12.70;;
43519;SDS011;46848;51.980;5.918;2024-03-06T08:06:43;86.63;;;14.90;;
43519;SDS011;46848;51.980;5.918;2024-03-06T08:09:09;31.80;;;14.57;;
43519;SDS011;46848;51.980;5.918;2024-03-06T08:11:36;31.97;;;14.67;;
43519;SDS011;46848;51.980;5.918;2024-03-06T08:14:01;57.23;;;16.57;;
43519;SDS011;46848;51.980;5.918;2024-03-06T08:16:27;22.70;;;14.83;;
43519;SDS011;46848;51.980;5.918;2024-03-06T08:18:53;49.20;;;16.73;;
43519;SDS011;46848;51.980;5.918;2024-03-06T08:21:20;30.63;;;18.40;;
43519;SDS011;46848;51.980;5.918;2024-03-06T08:23:45;30.53;;;17.30;;
43519;SDS011;46848;51.980;5.918;2024-03-06T08:26:12;40.13;;;17.63;;
43519;SDS011;46848;51.980;5.918;2024-03-06T08:28:38;37.60;;;16.50;;
43519;SDS011;46848;51.980;5.918;2024-03-06T08:31:03;33.90;;;17.40;;
43519;SDS011;46848;51.980;5.918;2024-03-06T08:33:29;52.80;;;19.83;;
43519;SDS011;46848;51.980;5.918;2024-03-06T08:35:54;55.40;;;18.70;;
43519;SDS011;46848;51.980;5.918;2024-03-06T08:38:20;28.90;;;18.30;;
43519;SDS011;46848;51.980;5.918;2024-03-06T08:40:46;43.67;;;16.73;;
43519;SDS011;46848;51.980;5.918;2024-03-06T08:43:12;45.37;;;18.37;;
43519;SDS011;46848;51.980;5.918;2024-03-06T08:45:38;30.43;;;17.90;;
43519;SDS011;46848;51.980;5.918;2024-03-06T08:48:04;64.10;;;19.33;;
43519;SDS011;46848;51.980;5.918;2024-03-06T08:50:30;36.60;;;18.60;;
43519;SDS011;46848;51.980;5.918;2024-03-06T08:52:56;35.97;;;19.23;;
43519;SDS011;46848;51.980;5.918;2024-03-06T08:55:21;36.17;;;20.10;;
43519;SDS011;46848;51.980;5.918;2024-03-06T08:57:47;33.10;;;19.90;;
43519;SDS011;46848;51.980;5.918;2024-03-06T09:00:13;43.70;;;20.67;;
43519;SDS011;46848;51.980;5.918;2024-03-06T09:02:39;40.40;;;22.00;;
43519;SDS011;46848;51.980;5.918;2024-03-06T09:05:08;34.87;;;22.50;;
43519;SDS011;46848;51.980;5.918;2024-03-06T09:07:36;48.90;;;20.73;;
43519;SDS011;46848;51.980;5.918;2024-03-06T09:10:09;36.87;;;22.03;;
43519;SDS011;46848;51.980;5.918;2024-03-06T09:12:37;46.00;;;21.63;;
43519;SDS011;46848;51.980;5.918;2024-03-06T09:15:03;41.67;;;23.03;;
43519;SDS011;46848;51.980;5.918;2024-03-06T09:17:29;40.47;;;23.50;;
43519;SDS011;46848;51.980;5.918;2024-03-06T09:19:55;47.73;;;22.03;;
43519;SDS011;46848;51.980;5.918;2024-03-06T09:22:21;42.90;;;23.60;;
43519;SDS011;46848;51.980;5.918;2024-03-06T09:24:47;38.77;;;23.23;;
43519;SDS011;46848;51.980;5.918;2024-03-06T09:27:13;51.87;;;23.80;;
43519;SDS011;46848;51.980;5.918;2024-03-06T09:29:39;35.37;;;22.30;;
43519;SDS011;46848;51.980;5.918;2024-03-06T09:32:05;35.83;;;21.77;;
43519;SDS011;46848;51.980;5.918;2024-03-06T09:34:31;38.40;;;22.93;;
43519;SDS011;46848;51.980;5.918;2024-03-06T09:36:57;39.37;;;23.73;;
43519;SDS011;46848;51.980;5.918;2024-03-06T09:39:22;37.13;;;22.50;;
43519;SDS011;46848;51.980;5.918;2024-03-06T09:41:52;41.27;;;26.30;;
43519;SDS011;46848;51.980;5.918;2024-03-06T09:44:22;43.30;;;26.00;;
43519;SDS011;46848;51.980;5.918;2024-03-06T09:46:48;45.53;;;26.97;;
43519;SDS011;46848;51.980;5.918;2024-03-06T09:49:15;49.07;;;28.10;;
43519;SDS011;46848;51.980;5.918;2024-03-06T09:51:43;46.10;;;26.80;;
43519;SDS011;46848;51.980;5.918;2024-03-06T09:54:14;40.90;;;26.40;;
43519;SDS011;46848;51.980;5.918;2024-03-06T09:56:44;52.67;;;30.77;;
43519;SDS011;46848;51.980;5.918;2024-03-06T09:59:11;54.03;;;31.70;;
43519;SDS011;46848;51.980;5.918;2024-03-06T10:01:58;48.47;;;28.87;;
43519;SDS011;46848;51.980;5.918;2024-03-06T10:04:27;49.17;;;28.70;;
43519;SDS011;46848;51.980;5.918;2024-03-06T10:06:53;43.67;;;26.07;;
43519;SDS011;46848;51.980;5.918;2024-03-06T10:09:20;45.07;;;28.17;;
43519;SDS011;46848;51.980;5.918;2024-03-06T10:11:46;47.90;;;28.40;;
43519;SDS011;46848;51.980;5.918;2024-03-06T10:14:12;43.17;;;26.10;;
43519;SDS011;46848;51.980;5.918;2024-03-06T10:16:51;45.50;;;27.70;;
43519;SDS011;46848;51.980;5.918;2024-03-06T10:19:18;49.07;;;29.37;;
43519;SDS011;46848;51.980;5.918;2024-03-06T10:21:46;49.53;;;30.10;;
43519;SDS011;46848;51.980;5.918;2024-03-06T10:24:16;51.67;;;28.87;;
43519;SDS011;46848;51.980;5.918;2024-03-06T10:26:46;43.37;;;26.77;;
43519;SDS011;46848;51.980;5.918;2024-03-06T10:29:16;43.03;;;25.93;;
43519;SDS011;46848;51.980;5.918;2024-03-06T10:31:56;40.47;;;25.13;;
43519;SDS011;46848;51.980;5.918;2024-03-06T10:34:26;39.53;;;23.53;;
43519;SDS011;46848;51.980;5.918;2024-03-06T10:39:27;38.17;;;23.77;;
43519;SDS011;46848;51.980;5.918;2024-03-06T10:41:55;40.43;;;25.47;;
43519;SDS011;46848;51.980;5.918;2024-03-06T10:44:22;42.13;;;23.80;;
43519;SDS011;46848;51.980;5.918;2024-03-06T10:46:51;37.10;;;22.67;;
43519;SDS011;46848;51.980;5.918;2024-03-06T10:49:25;37.72;;;24.55;;
43519;SDS011;46848;51.980;5.918;2024-03-06T10:51:53;37.08;;;23.65;;
43519;SDS011;46848;51.980;5.918;2024-03-06T10:54:22;36.58;;;23.75;;
43519;SDS011;46848;51.980;5.918;2024-03-06T10:56:51;35.00;;;22.13;;
43519;SDS011;46848;51.980;5.918;2024-03-06T10:59:18;43.88;;;27.08;;
43519;SDS011;46848;51.980;5.918;2024-03-06T11:01:46;45.00;;;26.08;;
43519;SDS011;46848;51.980;5.918;2024-03-06T11:04:12;44.75;;;27.73;;
43519;SDS011;46848;51.980;5.918;2024-03-06T11:06:40;41.47;;;25.77;;
43519;SDS011;46848;51.980;5.918;2024-03-06T11:09:06;44.78;;;26.27;;
43519;SDS011;46848;51.980;5.918;2024-03-06T11:11:46;41.47;;;26.52;;
43519;SDS011;46848;51.980;5.918;2024-03-06T11:14:22;43.20;;;28.27;;
43519;SDS011;46848;51.980;5.918;2024-03-06T11:19:28;42.33;;;26.73;;
43519;SDS011;46848;51.980;5.918;2024-03-06T11:22:17;44.70;;;28.33;;
43519;SDS011;46848;51.980;5.918;2024-03-06T11:24:42;43.08;;;27.13;;
43519;SDS011;46848;51.980;5.918;2024-03-06T11:27:08;40.03;;;25.88;;
43519;SDS011;46848;51.980;5.918;2024-03-06T11:32:36;41.92;;;26.50;;
43519;SDS011;46848;51.980;5.918;2024-03-06T11:35:03;41.05;;;25.73;;
43519;SDS011;46848;51.980;5.918;2024-03-06T11:37:33;39.80;;;25.15;;
43519;SDS011;46848;51.980;5.918;2024-03-06T11:39:59;37.17;;;24.85;;
43519;SDS011;46848;51.980;5.918;2024-03-06T11:42:33;36.92;;;24.55;;
43519;SDS011;46848;51.980;5.918;2024-03-06T11:45:15;42.20;;;26.45;;
43519;SDS011;46848;51.980;5.918;2024-03-06T11:47:58;36.60;;;23.95;;
43519;SDS011;46848;51.980;5.918;2024-03-06T11:50:27;39.13;;;24.42;;
43519;SDS011;46848;51.980;5.918;2024-03-06T11:52:53;38.53;;;25.65;;
43519;SDS011;46848;51.980;5.918;2024-03-06T11:55:22;34.13;;;22.90;;
43519;SDS011;46848;51.980;5.918;2024-03-06T11:57:50;34.88;;;23.02;;
43519;SDS011;46848;51.980;5.918;2024-03-06T12:00:16;42.58;;;28.25;;
43519;SDS011;46848;51.980;5.918;2024-03-06T12:02:42;36.20;;;25.00;;
43519;SDS011;46848;51.980;5.918;2024-03-06T12:05:08;34.90;;;23.23;;
43519;SDS011;46848;51.980;5.918;2024-03-06T12:07:44;34.10;;;22.45;;
43519;SDS011;46848;51.980;5.918;2024-03-06T12:10:14;39.47;;;23.65;;
43519;SDS011;46848;51.980;5.918;2024-03-06T12:12:41;34.85;;;23.77;;
43519;SDS011;46848;51.980;5.918;2024-03-06T12:15:09;36.10;;;24.65;;
43519;SDS011;46848;51.980;5.918;2024-03-06T12:17:46;35.13;;;22.67;;
43519;SDS011;46848;51.980;5.918;2024-03-06T12:20:13;27.98;;;21.00;;
43519;SDS011;46848;51.980;5.918;2024-03-06T12:22:49;32.42;;;21.70;;
43519;SDS011;46848;51.980;5.918;2024-03-06T12:25:22;30.85;;;22.33;;
43519;SDS011;46848;51.980;5.918;2024-03-06T12:27:49;30.45;;;20.83;;
43519;SDS011;46848;51.980;5.918;2024-03-06T12:30:21;31.10;;;22.98;;
43519;SDS011;46848;51.980;5.918;2024-03-06T12:32:57;30.50;;;21.88;;
43519;SDS011;46848;51.980;5.918;2024-03-06T12:35:23;27.63;;;19.77;;
43519;SDS011;46848;51.980;5.918;2024-03-06T12:37:50;31.70;;;22.23;;
43519;SDS011;46848;51.980;5.918;2024-03-06T12:40:16;27.10;;;19.60;;
43519;SDS011;46848;51.980;5.918;2024-03-06T12:42:41;30.98;;;20.25;;
43519;SDS011;46848;51.980;5.918;2024-03-06T12:45:08;30.67;;;20.42;;
43519;SDS011;46848;51.980;5.918;2024-03-06T12:47:35;27.38;;;20.63;;
43519;SDS011;46848;51.980;5.918;2024-03-06T12:50:00;28.23;;;18.88;;
43519;SDS011;46848;51.980;5.918;2024-03-06T12:52:26;27.58;;;19.65;;
43519;SDS011;46848;51.980;5.918;2024-03-06T12:54:52;27.65;;;18.92;;
43519;SDS011;46848;51.980;5.918;2024-03-06T12:57:17;26.05;;;18.40;;
43519;SDS011;46848;51.980;5.918;2024-03-06T12:59:43;26.27;;;18.95;;
43519;SDS011;46848;51.980;5.918;2024-03-06T13:02:09;24.88;;;18.15;;
43519;SDS011;46848;51.980;5.918;2024-03-06T13:04:34;24.88;;;18.05;;
43519;SDS011;46848;51.980;5.918;2024-03-06T13:07:00;27.00;;;20.40;;
43519;SDS011;46848;51.980;5.918;2024-03-06T13:09:25;27.35;;;19.38;;
43519;SDS011;46848;51.980;5.918;2024-03-06T13:11:51;30.25;;;21.05;;
43519;SDS011;46848;51.980;5.918;2024-03-06T13:14:17;24.83;;;19.17;;
43519;SDS011;46848;51.980;5.918;2024-03-06T13:16:42;23.40;;;17.25;;
43519;SDS011;46848;51.980;5.918;2024-03-06T13:19:08;22.77;;;16.05;;
43519;SDS011;46848;51.980;5.918;2024-03-06T13:21:36;23.17;;;17.35;;
43519;SDS011;46848;51.980;5.918;2024-03-06T13:24:02;21.13;;;15.73;;
43519;SDS011;46848;51.980;5.918;2024-03-06T13:26:28;19.83;;;14.00;;
43519;SDS011;46848;51.980;5.918;2024-03-06T13:28:53;19.83;;;13.77;;
43519;SDS011;46848;51.980;5.918;2024-03-06T13:31:19;18.90;;;13.48;;
43519;SDS011;46848;51.980;5.918;2024-03-06T13:33:44;17.75;;;13.13;;
43519;SDS011;46848;51.980;5.918;2024-03-06T13:36:10;19.88;;;13.45;;
43519;SDS011;46848;51.980;5.918;2024-03-06T13:38:35;16.95;;;11.88;;
43519;SDS011;46848;51.980;5.918;2024-03-06T13:41:01;16.67;;;11.88;;
43519;SDS011;46848;51.980;5.918;2024-03-06T13:43:27;17.48;;;12.90;;
43519;SDS011;46848;51.980;5.918;2024-03-06T13:45:53;17.52;;;12.27;;
43519;SDS011;46848;51.980;5.918;2024-03-06T13:48:19;18.33;;;11.88;;
43519;SDS011;46848;51.980;5.918;2024-03-06T13:50:45;13.82;;;9.13;;
43519;SDS011;46848;51.980;5.918;2024-03-06T13:53:11;14.35;;;10.18;;
43519;SDS011;46848;51.980;5.918;2024-03-06T13:55:37;12.38;;;9.10;;
43519;SDS011;46848;51.980;5.918;2024-03-06T13:58:03;15.02;;;10.55;;
43519;SDS011;46848;51.980;5.918;2024-03-06T14:00:29;17.17;;;10.30;;
43519;SDS011;46848;51.980;5.918;2024-03-06T14:02:55;15.70;;;10.00;;
43519;SDS011;46848;51.980;5.918;2024-03-06T14:05:21;15.25;;;10.23;;
43519;SDS011;46848;51.980;5.918;2024-03-06T14:07:53;14.00;;;9.70;;
43519;SDS011;46848;51.980;5.918;2024-03-06T14:10:19;19.33;;;9.25;;
43519;SDS011;46848;51.980;5.918;2024-03-06T14:12:46;14.45;;;10.27;;
43519;SDS011;46848;51.980;5.918;2024-03-06T14:15:12;14.07;;;9.98;;
43519;SDS011;46848;51.980;5.918;2024-03-06T14:17:39;12.75;;;8.93;;
43519;SDS011;46848;51.980;5.918;2024-03-06T14:20:05;13.15;;;8.65;;
43519;SDS011;46848;51.980;5.918;2024-03-06T14:22:31;11.23;;;7.82;;
43519;SDS011;46848;51.980;5.918;2024-03-06T14:24:57;9.80;;;7.00;;
43519;SDS011;46848;51.980;5.918;2024-03-06T14:27:22;11.43;;;7.20;;